sensor_id;sensor_type;location;lat;lon;timestamp;P1;durP1;ratioP1;P2;durP2;ratioP2
11263;SDS011;5689;48.798;9.070;2023-04-25T00:01:18;0.40;;;0.40;;
11263;SDS011;5689;48.798;9.070;2023-04-25T00:03:47;0.40;;;0.40;;
11263;SDS011;5689;48.798;9.070;2023-04-25T00:06:16;0.40;;;0.40;;
11263;SDS011;5689;48.798;9.070;2023-04-25T00:08:44;0.40;;;0.40;;
11263;SDS011;5689;48.798;9.070;2023-04-25T00:11:13;0.50;;;0.50;;
11263;SDS011;5689;48.798;9.070;2023-04-25T00:13:40;0.40;;;0.40;;
11263;SDS011;5689;48.798;9.070;2023-04-25T00:16:08;0.40;;;0.40;;
11263;SDS011;5689;48.798;9.070;2023-04-25T00:18:38;0.30;;;0.30;;
11263;SDS011;5689;48.798;9.070;2023-04-25T00:21:06;0.40;;;0.40;;
11263;SDS011;5689;48.798;9.070;2023-04-25T00:23:35;0.47;;;0.47;;
11263;SDS011;5689;48.798;9.070;2023-04-25T00:26:02;0.40;;;0.40;;
11263;SDS011;5689;48.798;9.070;2023-04-25T00:28:30;0.40;;;0.40;;
11263;SDS011;5689;48.798;9.070;2023-04-25T00:30:58;0.50;;;0.50;;
11263;SDS011;5689;48.798;9.070;2023-04-25T00:33:26;0.43;;;0.43;;
11263;SDS011;5689;48.798;9.070;2023-04-25T00:35:56;0.50;;;0.50;;
11263;SDS011;5689;48.798;9.070;2023-04-25T00:38:24;0.40;;;0.40;;
11263;SDS011;5689;48.798;9.070;2023-04-25T00:40:52;0.50;;;0.50;;
11263;SDS011;5689;48.798;9.070;2023-04-25T00:43:21;0.50;;;0.50;;
11263;SDS011;5689;48.798;9.070;2023-04-25T00:45:49;0.40;;;0.40;;
11263;SDS011;5689;48.798;9.070;2023-04-25T00:48:20;0.40;;;0.40;;
11263;SDS011;5689;48.798;9.070;2023-04-25T00:50:51;0.40;;;0.40;;
11263;SDS011;5689;48.798;9.070;2023-04-25T00:53:21;0.50;;;0.50;;
11263;SDS011;5689;48.798;9.070;2023-04-25T00:55:50;0.40;;;0.40;;
11263;SDS011;5689;48.798;9.070;2023-04-25T00:58:19;0.40;;;0.40;;
11263;SDS011;5689;48.798;9.070;2023-04-25T01:00:49;0.50;;;0.50;;
11263;SDS011;5689;48.798;9.070;2023-04-25T01:03:18;0.50;;;0.50;;
11263;SDS011;5689;48.798;9.070;2023-04-25T01:05:47;0.50;;;0.50;;
11263;SDS011;5689;48.798;9.070;2023-04-25T01:08:15;0.40;;;0.40;;
11263;SDS011;5689;48.798;9.070;2023-04-25T01:10:44;0.40;;;0.40;;
11263;SDS011;5689;48.798;9.070;2023-04-25T01:13:12;0.50;;;0.50;;
11263;SDS011;5689;48.798;9.070;2023-04-25T01:15:40;0.37;;;0.37;;
11263;SDS011;5689;48.798;9.070;2023-04-25T01:18:08;0.40;;;0.40;;
11263;SDS011;5689;48.798;9.070;2023-04-25T01:20:37;0.40;;;0.40;;
11263;SDS011;5689;48.798;9.070;2023-04-25T01:23:07;0.40;;;0.40;;
11263;SDS011;5689;48.798;9.070;2023-04-25T01:25:36;0.50;;;0.50;;
11263;SDS011;5689;48.798;9.070;2023-04-25T01:28:04;0.40;;;0.40;;
11263;SDS011;5689;48.798;9.070;2023-04-25T01:30:34;0.50;;;0.50;;
11263;SDS011;5689;48.798;9.070;2023-04-25T01:33:04;0.40;;;0.40;;
11263;SDS011;5689;48.798;9.070;2023-04-25T01:35:32;0.33;;;0.33;;
11263;SDS011;5689;48.798;9.070;2023-04-25T01:38:00;0.50;;;0.50;;
11263;SDS011;5689;48.798;9.070;2023-04-25T01:40:30;0.50;;;0.50;;
11263;SDS011;5689;48.798;9.070;2023-04-25T01:43:00;0.40;;;0.40;;
11263;SDS011;5689;48.798;9.070;2023-04-25T01:45:28;0.30;;;0.30;;
11263;SDS011;5689;48.798;9.070;2023-04-25T01:47:56;0.60;;;0.60;;
11263;SDS011;5689;48.798;9.070;2023-04-25T01:50:25;0.50;;;0.50;;
11263;SDS011;5689;48.798;9.070;2023-04-25T01:52:53;0.40;;;0.40;;
11263;SDS011;5689;48.798;9.070;2023-04-25T01:55:21;0.50;;;0.50;;
11263;SDS011;5689;48.798;9.070;2023-04-25T01:58:00;0.40;;;0.40;;
11263;SDS011;5689;48.798;9.070;2023-04-25T02:00:49;0.40;;;0.40;;
11263;SDS011;5689;48.798;9.070;2023-04-25T02:03:17;0.50;;;0.50;;
11263;SDS011;5689;48.798;9.070;2023-04-25T02:05:45;0.50;;;0.50;;
11263;SDS011;5689;48.798;9.070;2023-04-25T02:08:14;0.50;;;0.50;;
11263;SDS011;5689;48.798;9.070;2023-04-25T02:10:43;0.50;;;0.50;;
11263;SDS011;5689;48.798;9.070;2023-04-25T02:13:18;0.60;;;0.60;;
11263;SDS011;5689;48.798;9.070;2023-04-25T02:15:59;0.50;;;0.50;;
11263;SDS011;5689;48.798;9.070;2023-04-25T02:18:27;0.50;;;0.50;;
11263;SDS011;5689;48.798;9.070;2023-04-25T02:20:55;0.40;;;0.40;;
11263;SDS011;5689;48.798;9.070;2023-04-25T02:23:22;0.40;;;0.40;;
11263;SDS011;5689;48.798;9.070;2023-04-25T02:25:51;0.50;;;0.50;;
11263;SDS011;5689;48.798;9.070;2023-04-25T02:28:22;0.50;;;0.50;;
11263;SDS011;5689;48.798;9.070;2023-04-25T02:30:51;0.40;;;0.40;;
11263;SDS011;5689;48.798;9.070;2023-04-25T02:33:19;0.47;;;0.47;;
11263;SDS011;5689;48.798;9.070;2023-04-25T02:35:47;0.50;;;0.50;;
11263;SDS011;5689;48.798;9.070;2023-04-25T02:38:15;0.50;;;0.50;;
11263;SDS011;5689;48.798;9.070;2023-04-25T02:40:43;0.40;;;0.40;;
11263;SDS011;5689;48.798;9.070;2023-04-25T02:43:11;0.50;;;0.50;;
11263;SDS011;5689;48.798;9.070;2023-04-25T02:45:40;0.50;;;0.50;;
11263;SDS011;5689;48.798;9.070;2023-04-25T02:48:08;0.50;;;0.50;;
11263;SDS011;5689;48.798;9.070;2023-04-25T02:50:36;0.40;;;0.40;;
11263;SDS011;5689;48.798;9.070;2023-04-25T02:53:03;0.40;;;0.40;;
11263;SDS011;5689;48.798;9.070;2023-04-25T02:55:37;0.40;;;0.40;;
11263;SDS011;5689;48.798;9.070;2023-04-25T02:58:05;0.40;;;0.40;;
11263;SDS011;5689;48.798;9.070;2023-04-25T03:00:41;0.50;;;0.50;;
11263;SDS011;5689;48.798;9.070;2023-04-25T03:03:10;0.57;;;0.57;;
11263;SDS011;5689;48.798;9.070;2023-04-25T03:05:38;0.50;;;0.50;;
11263;SDS011;5689;48.798;9.070;2023-04-25T03:08:06;0.50;;;0.50;;
11263;SDS011;5689;48.798;9.070;2023-04-25T03:10:36;0.50;;;0.50;;
11263;SDS011;5689;48.798;9.070;2023-04-25T03:13:07;0.50;;;0.50;;
11263;SDS011;5689;48.798;9.070;2023-04-25T03:15:35;0.40;;;0.40;;
11263;SDS011;5689;48.798;9.070;2023-04-25T03:18:04;0.50;;;0.50;;
11263;SDS011;5689;48.798;9.070;2023-04-25T03:20:32;0.50;;;0.50;;
11263;SDS011;5689;48.798;9.070;2023-04-25T03:23:02;0.60;;;0.60;;
11263;SDS011;5689;48.798;9.070;2023-04-25T03:25:29;0.50;;;0.50;;
11263;SDS011;5689;48.798;9.070;2023-04-25T03:27:57;0.50;;;0.50;;
11263;SDS011;5689;48.798;9.070;2023-04-25T03:30:25;0.50;;;0.50;;
11263;SDS011;5689;48.798;9.070;2023-04-25T03:32:53;0.60;;;0.60;;
11263;SDS011;5689;48.798;9.070;2023-04-25T03:35:23;0.50;;;0.50;;
11263;SDS011;5689;48.798;9.070;2023-04-25T03:37:51;0.60;;;0.60;;
11263;SDS011;5689;48.798;9.070;2023-04-25T03:40:24;0.50;;;0.50;;
11263;SDS011;5689;48.798;9.070;2023-04-25T03:43:07;0.50;;;0.50;;
11263;SDS011;5689;48.798;9.070;2023-04-25T03:45:36;0.53;;;0.53;;
11263;SDS011;5689;48.798;9.070;2023-04-25T03:48:07;0.50;;;0.50;;
11263;SDS011;5689;48.798;9.070;2023-04-25T03:50:36;0.40;;;0.40;;
11263;SDS011;5689;48.798;9.070;2023-04-25T03:53:04;0.50;;;0.50;;
11263;SDS011;5689;48.798;9.070;2023-04-25T03:55:52;0.50;;;0.50;;
11263;SDS011;5689;48.798;9.070;2023-04-25T03:58:20;0.50;;;0.50;;
11263;SDS011;5689;48.798;9.070;2023-04-25T04:00:49;0.50;;;0.50;;
11263;SDS011;5689;48.798;9.070;2023-04-25T04:03:17;0.50;;;0.50;;
11263;SDS011;5689;48.798;9.070;2023-04-25T04:05:46;0.40;;;0.40;;
11263;SDS011;5689;48.798;9.070;2023-04-25T04:08:14;0.60;;;0.60;;
11263;SDS011;5689;48.798;9.070;2023-04-25T04:10:42;0.50;;;0.50;;
11263;SDS011;5689;48.798;9.070;2023-04-25T04:13:10;0.50;;;0.50;;
11263;SDS011;5689;48.798;9.070;2023-04-25T04:15:38;0.60;;;0.60;;
11263;SDS011;5689;48.798;9.070;2023-04-25T04:18:06;0.50;;;0.50;;
11263;SDS011;5689;48.798;9.070;2023-04-25T04:20:34;0.60;;;0.60;;
11263;SDS011;5689;48.798;9.070;2023-04-25T04:23:03;0.60;;;0.60;;
11263;SDS011;5689;48.798;9.070;2023-04-25T04:25:31;0.53;;;0.53;;
11263;SDS011;5689;48.798;9.070;2023-04-25T04:28:21;0.60;;;0.60;;
11263;SDS011;5689;48.798;9.070;2023-04-25T04:30:58;0.50;;;0.50;;
11263;SDS011;5689;48.798;9.070;2023-04-25T04:33:27;0.50;;;0.50;;
11263;SDS011;5689;48.798;9.070;2023-04-25T04:35:58;0.50;;;0.50;;
11263;SDS011;5689;48.798;9.070;2023-04-25T04:38:28;0.57;;;0.57;;
11263;SDS011;5689;48.798;9.070;2023-04-25T04:41:00;0.50;;;0.50;;
11263;SDS011;5689;48.798;9.070;2023-04-25T04:43:35;0.50;;;0.50;;
11263;SDS011;5689;48.798;9.070;2023-04-25T04:46:27;0.50;;;0.50;;
11263;SDS011;5689;48.798;9.070;2023-04-25T04:49:10;0.50;;;0.50;;
11263;SDS011;5689;48.798;9.070;2023-04-25T04:51:38;0.40;;;0.40;;
11263;SDS011;5689;48.798;9.070;2023-04-25T04:54:31;0.50;;;0.50;;
11263;SDS011;5689;48.798;9.070;2023-04-25T04:57:35;0.50;;;0.50;;
11263;SDS011;5689;48.798;9.070;2023-04-25T05:00:25;0.60;;;0.60;;
11263;SDS011;5689;48.798;9.070;2023-04-25T05:03:10;0.50;;;0.50;;
11263;SDS011;5689;48.798;9.070;2023-04-25T05:06:10;0.50;;;0.50;;
11263;SDS011;5689;48.798;9.070;2023-04-25T05:09:12;0.40;;;0.40;;
11263;SDS011;5689;48.798;9.070;2023-04-25T05:12:00;0.50;;;0.50;;
11263;SDS011;5689;48.798;9.070;2023-04-25T05:14:37;0.50;;;0.50;;
11263;SDS011;5689;48.798;9.070;2023-04-25T05:17:29;0.60;;;0.60;;
11263;SDS011;5689;48.798;9.070;2023-04-25T05:20:17;0.50;;;0.50;;
11263;SDS011;5689;48.798;9.070;2023-04-25T05:23:12;0.50;;;0.50;;
11263;SDS011;5689;48.798;9.070;2023-04-25T05:25:51;0.60;;;0.60;;
11263;SDS011;5689;48.798;9.070;2023-04-25T05:28:31;0.60;;;0.60;;
11263;SDS011;5689;48.798;9.070;2023-04-25T05:31:14;0.50;;;0.50;;
11263;SDS011;5689;48.798;9.070;2023-04-25T05:33:48;0.60;;;0.60;;
11263;SDS011;5689;48.798;9.070;2023-04-25T05:36:17;0.50;;;0.50;;
11263;SDS011;5689;48.798;9.070;2023-04-25T05:38:45;0.60;;;0.60;;
11263;SDS011;5689;48.798;9.070;2023-04-25T05:41:37;0.60;;;0.60;;
11263;SDS011;5689;48.798;9.070;2023-04-25T05:44:26;0.57;;;0.57;;
11263;SDS011;5689;48.798;9.070;2023-04-25T05:47:10;0.40;;;0.40;;
11263;SDS011;5689;48.798;9.070;2023-04-25T05:49:54;0.30;;;0.30;;
11263;SDS011;5689;48.798;9.070;2023-04-25T05:52:38;0.40;;;0.40;;
11263;SDS011;5689;48.798;9.070;2023-04-25T05:55:16;0.20;;;0.20;;
11263;SDS011;5689;48.798;9.070;2023-04-25T05:57:44;0.30;;;0.30;;
11263;SDS011;5689;48.798;9.070;2023-04-25T06:00:15;0.20;;;0.20;;
11263;SDS011;5689;48.798;9.070;2023-04-25T06:02:47;0.30;;;0.30;;
11263;SDS011;5689;48.798;9.070;2023-04-25T06:05:15;0.20;;;0.20;;
11263;SDS011;5689;48.798;9.070;2023-04-25T06:07:45;0.40;;;0.40;;
11263;SDS011;5689;48.798;9.070;2023-04-25T06:10:13;0.40;;;0.40;;
11263;SDS011;5689;48.798;9.070;2023-04-25T06:12:41;0.30;;;0.30;;
11263;SDS011;5689;48.798;9.070;2023-04-25T06:15:10;0.30;;;0.30;;
11263;SDS011;5689;48.798;9.070;2023-04-25T06:17:43;0.30;;;0.30;;
11263;SDS011;5689;48.798;9.070;2023-04-25T06:20:11;0.33;;;0.33;;
11263;SDS011;5689;48.798;9.070;2023-04-25T06:22:39;0.40;;;0.40;;
11263;SDS011;5689;48.798;9.070;2023-04-25T06:25:07;0.20;;;0.20;;
11263;SDS011;5689;48.798;9.070;2023-04-25T06:27:36;0.20;;;0.20;;
11263;SDS011;5689;48.798;9.070;2023-04-25T06:30:05;0.30;;;0.30;;
11263;SDS011;5689;48.798;9.070;2023-04-25T06:32:33;0.30;;;0.30;;
11263;SDS011;5689;48.798;9.070;2023-04-25T06:35:04;0.20;;;0.20;;
11263;SDS011;5689;48.798;9.070;2023-04-25T06:37:33;0.30;;;0.30;;
11263;SDS011;5689;48.798;9.070;2023-04-25T06:40:01;0.20;;;0.20;;
11263;SDS011;5689;48.798;9.070;2023-04-25T06:42:29;0.30;;;0.30;;
11263;SDS011;5689;48.798;9.070;2023-04-25T06:44:58;0.30;;;0.30;;
11263;SDS011;5689;48.798;9.070;2023-04-25T06:47:28;0.30;;;0.30;;
11263;SDS011;5689;48.798;9.070;2023-04-25T06:49:58;0.30;;;0.30;;
11263;SDS011;5689;48.798;9.070;2023-04-25T06:52:28;0.30;;;0.30;;
11263;SDS011;5689;48.798;9.070;2023-04-25T06:54:56;0.20;;;0.20;;
11263;SDS011;5689;48.798;9.070;2023-04-25T06:57:39;0.30;;;0.30;;
11263;SDS011;5689;48.798;9.070;2023-04-25T07:00:26;0.30;;;0.30;;
11263;SDS011;5689;48.798;9.070;2023-04-25T07:02:54;0.30;;;0.30;;
11263;SDS011;5689;48.798;9.070;2023-04-25T07:05:23;0.30;;;0.30;;
11263;SDS011;5689;48.798;9.070;2023-04-25T07:07:52;0.30;;;0.30;;
11263;SDS011;5689;48.798;9.070;2023-04-25T07:10:20;0.40;;;0.40;;
11263;SDS011;5689;48.798;9.070;2023-04-25T07:12:48;0.30;;;0.30;;
11263;SDS011;5689;48.798;9.070;2023-04-25T07:15:16;0.30;;;0.30;;
11263;SDS011;5689;48.798;9.070;2023-04-25T07:17:47;0.30;;;0.30;;
11263;SDS011;5689;48.798;9.070;2023-04-25T07:20:15;0.20;;;0.20;;
11263;SDS011;5689;48.798;9.070;2023-04-25T07:22:43;0.30;;;0.30;;
11263;SDS011;5689;48.798;9.070;2023-04-25T07:25:13;0.27;;;0.27;;
11263;SDS011;5689;48.798;9.070;2023-04-25T07:27:41;0.30;;;0.30;;
11263;SDS011;5689;48.798;9.070;2023-04-25T07:30:13;0.20;;;0.20;;
11263;SDS011;5689;48.798;9.070;2023-04-25T07:32:42;0.30;;;0.30;;
11263;SDS011;5689;48.798;9.070;2023-04-25T07:35:11;0.20;;;0.20;;
11263;SDS011;5689;48.798;9.070;2023-04-25T07:37:40;0.30;;;0.30;;
11263;SDS011;5689;48.798;9.070;2023-04-25T07:40:11;0.30;;;0.30;;
11263;SDS011;5689;48.798;9.070;2023-04-25T07:42:46;0.33;;;0.33;;
11263;SDS011;5689;48.798;9.070;2023-04-25T07:45:18;0.30;;;0.30;;
11263;SDS011;5689;48.798;9.070;2023-04-25T07:47:45;0.30;;;0.30;;
11263;SDS011;5689;48.798;9.070;2023-04-25T07:50:13;0.30;;;0.30;;
11263;SDS011;5689;48.798;9.070;2023-04-25T07:52:41;0.23;;;0.23;;
11263;SDS011;5689;48.798;9.070;2023-04-25T07:55:21;0.30;;;0.30;;
11263;SDS011;5689;48.798;9.070;2023-04-25T07:58:00;0.30;;;0.30;;
11263;SDS011;5689;48.798;9.070;2023-04-25T08:00:30;0.30;;;0.30;;
11263;SDS011;5689;48.798;9.070;2023-04-25T08:03:18;0.30;;;0.30;;
11263;SDS011;5689;48.798;9.070;2023-04-25T08:05:46;0.23;;;0.23;;
11263;SDS011;5689;48.798;9.070;2023-04-25T08:08:14;0.30;;;0.30;;
11263;SDS011;5689;48.798;9.070;2023-04-25T08:10:44;0.30;;;0.30;;
11263;SDS011;5689;48.798;9.070;2023-04-25T08:13:12;0.33;;;0.33;;
11263;SDS011;5689;48.798;9.070;2023-04-25T08:15:40;0.40;;;0.40;;
11263;SDS011;5689;48.798;9.070;2023-04-25T08:18:08;0.33;;;0.33;;
11263;SDS011;5689;48.798;9.070;2023-04-25T08:20:36;0.30;;;0.30;;
11263;SDS011;5689;48.798;9.070;2023-04-25T08:23:06;0.30;;;0.30;;
11263;SDS011;5689;48.798;9.070;2023-04-25T08:25:53;0.37;;;0.37;;
11263;SDS011;5689;48.798;9.070;2023-04-25T08:28:25;0.30;;;0.30;;
11263;SDS011;5689;48.798;9.070;2023-04-25T08:30:54;0.30;;;0.30;;
11263;SDS011;5689;48.798;9.070;2023-04-25T08:33:23;0.30;;;0.30;;
11263;SDS011;5689;48.798;9.070;2023-04-25T08:36:09;0.30;;;0.30;;
11263;SDS011;5689;48.798;9.070;2023-04-25T08:38:37;0.23;;;0.23;;
11263;SDS011;5689;48.798;9.070;2023-04-25T08:41:10;0.30;;;0.30;;
11263;SDS011;5689;48.798;9.070;2023-04-25T08:43:39;0.30;;;0.30;;
11263;SDS011;5689;48.798;9.070;2023-04-25T08:46:09;0.40;;;0.40;;
11263;SDS011;5689;48.798;9.070;2023-04-25T08:48:53;0.40;;;0.40;;
11263;SDS011;5689;48.798;9.070;2023-04-25T08:51:29;0.30;;;0.30;;
11263;SDS011;5689;48.798;9.070;2023-04-25T08:54:03;0.20;;;0.20;;
11263;SDS011;5689;48.798;9.070;2023-04-25T08:56:47;0.30;;;0.30;;
11263;SDS011;5689;48.798;9.070;2023-04-25T08:59:15;0.37;;;0.37;;
11263;SDS011;5689;48.798;9.070;2023-04-25T09:01:45;0.30;;;0.30;;
11263;SDS011;5689;48.798;9.070;2023-04-25T09:04:13;0.40;;;0.40;;
11263;SDS011;5689;48.798;9.070;2023-04-25T09:06:42;0.30;;;0.30;;
11263;SDS011;5689;48.798;9.070;2023-04-25T09:09:10;0.40;;;0.40;;
11263;SDS011;5689;48.798;9.070;2023-04-25T09:11:38;0.40;;;0.40;;
11263;SDS011;5689;48.798;9.070;2023-04-25T09:14:15;0.30;;;0.30;;
11263;SDS011;5689;48.798;9.070;2023-04-25T09:17:04;0.30;;;0.30;;
11263;SDS011;5689;48.798;9.070;2023-04-25T09:19:48;0.40;;;0.40;;
11263;SDS011;5689;48.798;9.070;2023-04-25T09:22:29;0.30;;;0.30;;
11263;SDS011;5689;48.798;9.070;2023-04-25T09:24:57;0.30;;;0.30;;
11263;SDS011;5689;48.798;9.070;2023-04-25T09:27:30;0.30;;;0.30;;
11263;SDS011;5689;48.798;9.070;2023-04-25T09:30:14;0.33;;;0.33;;
11263;SDS011;5689;48.798;9.070;2023-04-25T09:33:04;0.40;;;0.40;;
11263;SDS011;5689;48.798;9.070;2023-04-25T09:35:36;0.40;;;0.40;;
11263;SDS011;5689;48.798;9.070;2023-04-25T09:38:08;0.30;;;0.30;;
11263;SDS011;5689;48.798;9.070;2023-04-25T09:40:46;0.30;;;0.30;;
11263;SDS011;5689;48.798;9.070;2023-04-25T09:43:24;0.30;;;0.30;;
11263;SDS011;5689;48.798;9.070;2023-04-25T09:45:54;0.30;;;0.30;;
11263;SDS011;5689;48.798;9.070;2023-04-25T09:48:27;0.53;;;0.53;;
11263;SDS011;5689;48.798;9.070;2023-04-25T09:51:09;0.50;;;0.50;;
11263;SDS011;5689;48.798;9.070;2023-04-25T09:53:42;0.60;;;0.60;;
11263;SDS011;5689;48.798;9.070;2023-04-25T09:56:21;0.60;;;0.60;;
11263;SDS011;5689;48.798;9.070;2023-04-25T09:58:50;0.60;;;0.60;;
11263;SDS011;5689;48.798;9.070;2023-04-25T10:01:25;0.43;;;0.43;;
11263;SDS011;5689;48.798;9.070;2023-04-25T10:04:11;0.50;;;0.50;;
11263;SDS011;5689;48.798;9.070;2023-04-25T10:06:45;0.60;;;0.60;;
11263;SDS011;5689;48.798;9.070;2023-04-25T10:09:17;0.50;;;0.50;;
11263;SDS011;5689;48.798;9.070;2023-04-25T10:11:47;0.50;;;0.50;;
11263;SDS011;5689;48.798;9.070;2023-04-25T10:14:15;0.60;;;0.60;;
11263;SDS011;5689;48.798;9.070;2023-04-25T10:16:45;0.67;;;0.67;;
11263;SDS011;5689;48.798;9.070;2023-04-25T10:19:14;0.50;;;0.50;;
11263;SDS011;5689;48.798;9.070;2023-04-25T10:21:44;0.50;;;0.50;;
11263;SDS011;5689;48.798;9.070;2023-04-25T10:24:17;0.50;;;0.50;;
11263;SDS011;5689;48.798;9.070;2023-04-25T10:26:46;0.53;;;0.53;;
11263;SDS011;5689;48.798;9.070;2023-04-25T10:29:21;0.60;;;0.60;;
11263;SDS011;5689;48.798;9.070;2023-04-25T10:31:52;0.70;;;0.70;;
11263;SDS011;5689;48.798;9.070;2023-04-25T10:34:23;0.50;;;0.50;;
11263;SDS011;5689;48.798;9.070;2023-04-25T10:37:04;0.70;;;0.70;;
11263;SDS011;5689;48.798;9.070;2023-04-25T10:39:33;0.70;;;0.70;;
11263;SDS011;5689;48.798;9.070;2023-04-25T10:42:01;0.60;;;0.60;;
11263;SDS011;5689;48.798;9.070;2023-04-25T10:44:30;0.60;;;0.60;;
11263;SDS011;5689;48.798;9.070;2023-04-25T10:47:00;0.60;;;0.60;;
11263;SDS011;5689;48.798;9.070;2023-04-25T10:49:32;0.63;;;0.63;;
11263;SDS011;5689;48.798;9.070;2023-04-25T10:52:16;0.70;;;0.70;;
11263;SDS011;5689;48.798;9.070;2023-04-25T10:54:49;0.70;;;0.70;;
11263;SDS011;5689;48.798;9.070;2023-04-25T10:57:30;0.50;;;0.50;;
11263;SDS011;5689;48.798;9.070;2023-04-25T11:00:09;0.60;;;0.60;;
11263;SDS011;5689;48.798;9.070;2023-04-25T11:02:42;0.70;;;0.70;;
11263;SDS011;5689;48.798;9.070;2023-04-25T11:05:18;0.60;;;0.60;;
11263;SDS011;5689;48.798;9.070;2023-04-25T11:07:50;0.60;;;0.60;;
11263;SDS011;5689;48.798;9.070;2023-04-25T11:10:25;0.70;;;0.70;;
11263;SDS011;5689;48.798;9.070;2023-04-25T11:12:53;0.60;;;0.60;;
11263;SDS011;5689;48.798;9.070;2023-04-25T11:15:22;0.60;;;0.60;;
11263;SDS011;5689;48.798;9.070;2023-04-25T11:17:52;0.60;;;0.60;;
11263;SDS011;5689;48.798;9.070;2023-04-25T11:20:20;0.60;;;0.60;;
11263;SDS011;5689;48.798;9.070;2023-04-25T11:22:49;0.60;;;0.60;;
11263;SDS011;5689;48.798;9.070;2023-04-25T11:25:19;0.60;;;0.60;;
11263;SDS011;5689;48.798;9.070;2023-04-25T11:27:50;0.60;;;0.60;;
11263;SDS011;5689;48.798;9.070;2023-04-25T11:30:19;0.50;;;0.50;;
11263;SDS011;5689;48.798;9.070;2023-04-25T11:32:48;0.60;;;0.60;;
11263;SDS011;5689;48.798;9.070;2023-04-25T11:35:17;0.50;;;0.50;;
11263;SDS011;5689;48.798;9.070;2023-04-25T11:37:46;0.60;;;0.60;;
11263;SDS011;5689;48.798;9.070;2023-04-25T11:40:14;0.60;;;0.60;;
11263;SDS011;5689;48.798;9.070;2023-04-25T11:42:43;0.47;;;0.47;;
11263;SDS011;5689;48.798;9.070;2023-04-25T11:45:13;0.50;;;0.50;;
11263;SDS011;5689;48.798;9.070;2023-04-25T11:47:41;0.57;;;0.57;;
11263;SDS011;5689;48.798;9.070;2023-04-25T11:50:09;0.50;;;0.50;;
11263;SDS011;5689;48.798;9.070;2023-04-25T11:52:40;0.60;;;0.60;;
11263;SDS011;5689;48.798;9.070;2023-04-25T11:55:09;0.60;;;0.60;;
11263;SDS011;5689;48.798;9.070;2023-04-25T11:57:40;0.50;;;0.50;;
11263;SDS011;5689;48.798;9.070;2023-04-25T12:00:10;0.53;;;0.53;;
11263;SDS011;5689;48.798;9.070;2023-04-25T12:02:41;0.60;;;0.60;;
11263;SDS011;5689;48.798;9.070;2023-04-25T12:05:10;0.60;;;0.60;;
11263;SDS011;5689;48.798;9.070;2023-04-25T12:07:48;0.50;;;0.50;;
11263;SDS011;5689;48.798;9.070;2023-04-25T12:10:17;0.60;;;0.60;;
11263;SDS011;5689;48.798;9.070;2023-04-25T12:12:46;0.50;;;0.50;;
11263;SDS011;5689;48.798;9.070;2023-04-25T12:15:16;0.50;;;0.50;;
11263;SDS011;5689;48.798;9.070;2023-04-25T12:17:46;0.43;;;0.43;;
11263;SDS011;5689;48.798;9.070;2023-04-25T12:20:15;0.57;;;0.57;;
11263;SDS011;5689;48.798;9.070;2023-04-25T12:22:46;0.60;;;0.60;;
11263;SDS011;5689;48.798;9.070;2023-04-25T12:28:11;0.60;;;0.60;;
11263;SDS011;5689;48.798;9.070;2023-04-25T12:30:55;0.50;;;0.50;;
11263;SDS011;5689;48.798;9.070;2023-04-25T12:33:24;0.40;;;0.40;;
11263;SDS011;5689;48.798;9.070;2023-04-25T12:35:53;0.37;;;0.37;;
11263;SDS011;5689;48.798;9.070;2023-04-25T12:38:21;0.40;;;0.40;;
11263;SDS011;5689;48.798;9.070;2023-04-25T12:40:51;0.57;;;0.57;;
11263;SDS011;5689;48.798;9.070;2023-04-25T12:43:20;0.40;;;0.40;;
11263;SDS011;5689;48.798;9.070;2023-04-25T12:45:48;0.40;;;0.40;;
11263;SDS011;5689;48.798;9.070;2023-04-25T12:48:17;0.50;;;0.50;;
11263;SDS011;5689;48.798;9.070;2023-04-25T12:50:45;0.47;;;0.47;;
11263;SDS011;5689;48.798;9.070;2023-04-25T12:53:15;0.40;;;0.40;;
11263;SDS011;5689;48.798;9.070;2023-04-25T12:55:43;0.43;;;0.43;;
11263;SDS011;5689;48.798;9.070;2023-04-25T12:58:14;0.32;;;0.32;;
11263;SDS011;5689;48.798;9.070;2023-04-25T13:00:42;0.30;;;0.30;;
11263;SDS011;5689;48.798;9.070;2023-04-25T13:03:10;0.30;;;0.30;;
11263;SDS011;5689;48.798;9.070;2023-04-25T13:05:39;0.30;;;0.30;;
11263;SDS011;5689;48.798;9.070;2023-04-25T13:08:07;0.30;;;0.30;;
11263;SDS011;5689;48.798;9.070;2023-04-25T13:10:35;0.30;;;0.30;;
11263;SDS011;5689;48.798;9.070;2023-04-25T13:13:04;0.17;;;0.17;;
11263;SDS011;5689;48.798;9.070;2023-04-25T13:18:03;0.20;;;0.20;;
11263;SDS011;5689;48.798;9.070;2023-04-25T13:20:31;0.20;;;0.20;;
11263;SDS011;5689;48.798;9.070;2023-04-25T13:22:59;0.30;;;0.30;;
11263;SDS011;5689;48.798;9.070;2023-04-25T13:25:27;0.30;;;0.30;;
11263;SDS011;5689;48.798;9.070;2023-04-25T13:27:55;0.30;;;0.30;;
11263;SDS011;5689;48.798;9.070;2023-04-25T13:30:24;0.23;;;0.23;;
11263;SDS011;5689;48.798;9.070;2023-04-25T13:32:53;0.40;;;0.40;;
11263;SDS011;5689;48.798;9.070;2023-04-25T13:35:23;0.33;;;0.33;;
11263;SDS011;5689;48.798;9.070;2023-04-25T13:37:52;0.33;;;0.33;;
11263;SDS011;5689;48.798;9.070;2023-04-25T13:40:20;0.30;;;0.30;;
11263;SDS011;5689;48.798;9.070;2023-04-25T13:42:49;0.30;;;0.30;;
11263;SDS011;5689;48.798;9.070;2023-04-25T13:45:17;0.30;;;0.30;;
11263;SDS011;5689;48.798;9.070;2023-04-25T13:47:45;0.40;;;0.40;;
11263;SDS011;5689;48.798;9.070;2023-04-25T13:50:14;0.30;;;0.30;;
11263;SDS011;5689;48.798;9.070;2023-04-25T13:52:43;0.40;;;0.40;;
11263;SDS011;5689;48.798;9.070;2023-04-25T13:55:11;0.30;;;0.30;;
11263;SDS011;5689;48.798;9.070;2023-04-25T13:57:39;0.40;;;0.40;;
11263;SDS011;5689;48.798;9.070;2023-04-25T14:00:08;0.28;;;0.28;;
11263;SDS011;5689;48.798;9.070;2023-04-25T14:02:37;0.30;;;0.30;;
11263;SDS011;5689;48.798;9.070;2023-04-25T14:05:06;0.10;;;0.10;;
11263;SDS011;5689;48.798;9.070;2023-04-25T14:07:35;0.20;;;0.20;;
11263;SDS011;5689;48.798;9.070;2023-04-25T14:10:05;0.20;;;0.20;;
11263;SDS011;5689;48.798;9.070;2023-04-25T14:12:33;0.20;;;0.20;;
11263;SDS011;5689;48.798;9.070;2023-04-25T14:15:02;0.20;;;0.20;;
11263;SDS011;5689;48.798;9.070;2023-04-25T14:17:30;0.20;;;0.20;;
11263;SDS011;5689;48.798;9.070;2023-04-25T14:19:58;0.20;;;0.20;;
11263;SDS011;5689;48.798;9.070;2023-04-25T14:22:26;0.10;;;0.10;;
11263;SDS011;5689;48.798;9.070;2023-04-25T14:24:54;0.10;;;0.10;;
11263;SDS011;5689;48.798;9.070;2023-04-25T14:27:24;0.20;;;0.20;;
11263;SDS011;5689;48.798;9.070;2023-04-25T14:29:53;0.20;;;0.20;;
11263;SDS011;5689;48.798;9.070;2023-04-25T14:32:22;0.30;;;0.30;;
11263;SDS011;5689;48.798;9.070;2023-04-25T14:34:50;0.30;;;0.30;;
11263;SDS011;5689;48.798;9.070;2023-04-25T14:37:18;0.20;;;0.20;;
11263;SDS011;5689;48.798;9.070;2023-04-25T14:39:46;0.20;;;0.20;;
11263;SDS011;5689;48.798;9.070;2023-04-25T14:42:14;0.28;;;0.28;;
11263;SDS011;5689;48.798;9.070;2023-04-25T14:44:43;0.40;;;0.40;;
11263;SDS011;5689;48.798;9.070;2023-04-25T14:47:11;0.20;;;0.20;;
11263;SDS011;5689;48.798;9.070;2023-04-25T14:49:39;0.20;;;0.20;;
11263;SDS011;5689;48.798;9.070;2023-04-25T14:52:07;0.10;;;0.10;;
11263;SDS011;5689;48.798;9.070;2023-04-25T14:54:35;0.10;;;0.10;;
11263;SDS011;5689;48.798;9.070;2023-04-25T14:57:03;0.10;;;0.10;;
11263;SDS011;5689;48.798;9.070;2023-04-25T14:59:32;0.10;;;0.10;;
11263;SDS011;5689;48.798;9.070;2023-04-25T15:02:01;0.20;;;0.20;;
11263;SDS011;5689;48.798;9.070;2023-04-25T15:04:29;0.20;;;0.20;;
11263;SDS011;5689;48.798;9.070;2023-04-25T15:06:57;0.20;;;0.20;;
11263;SDS011;5689;48.798;9.070;2023-04-25T15:09:25;0.20;;;0.20;;
11263;SDS011;5689;48.798;9.070;2023-04-25T15:11:54;0.20;;;0.20;;
11263;SDS011;5689;48.798;9.070;2023-04-25T15:14:23;0.15;;;0.15;;
11263;SDS011;5689;48.798;9.070;2023-04-25T15:16:51;0.20;;;0.20;;
11263;SDS011;5689;48.798;9.070;2023-04-25T15:19:20;0.10;;;0.10;;
11263;SDS011;5689;48.798;9.070;2023-04-25T15:21:48;0.20;;;0.20;;
11263;SDS011;5689;48.798;9.070;2023-04-25T15:24:16;0.20;;;0.20;;
11263;SDS011;5689;48.798;9.070;2023-04-25T15:26:44;0.10;;;0.10;;
11263;SDS011;5689;48.798;9.070;2023-04-25T15:29:12;0.15;;;0.15;;
11263;SDS011;5689;48.798;9.070;2023-04-25T15:31:41;0.20;;;0.20;;